sensor_id;sensor_type;location;lat;lon;timestamp;temperature;humidity
17170;DHT22;8700;48.222;16.342;2022-10-16T00:00:02;14.80;99.90
17170;DHT22;8700;48.222;16.342;2022-10-16T00:03:23;14.80;99.90
17170;DHT22;8700;48.222;16.342;2022-10-16T00:06:45;14.80;99.90
17170;DHT22;8700;48.222;16.342;2022-10-16T00:10:07;14.70;99.90
17170;DHT22;8700;48.222;16.342;2022-10-16T00:13:33;14.60;99.90
17170;DHT22;8700;48.222;16.342;2022-10-16T00:16:55;14.60;99.90
17170;DHT22;8700;48.222;16.342;2022-10-16T00:20:17;14.60;99.90
17170;DHT22;8700;48.222;16.342;2022-10-16T00:23:38;14.70;99.90
17170;DHT22;8700;48.222;16.342;2022-10-16T00:26:59;14.70;99.90
17170;DHT22;8700;48.222;16.342;2022-10-16T00:30:22;14.80;99.90
17170;DHT22;8700;48.222;16.342;2022-10-16T00:33:44;14.90;99.90
17170;DHT22;8700;48.222;16.342;2022-10-16T00:37:05;14.90;99.90
17170;DHT22;8700;48.222;16.342;2022-10-16T00:40:27;15.00;99.90
17170;DHT22;8700;48.222;16.342;2022-10-16T00:43:51;15.10;99.90
17170;DHT22;8700;48.222;16.342;2022-10-16T00:47:18;15.20;99.90
17170;DHT22;8700;48.222;16.342;2022-10-16T00:50:39;15.20;99.90
17170;DHT22;8700;48.222;16.342;2022-10-16T00:54:05;15.10;99.90
17170;DHT22;8700;48.222;16.342;2022-10-16T00:57:28;15.30;99.90
17170;DHT22;8700;48.222;16.342;2022-10-16T01:00:49;15.20;99.90
17170;DHT22;8700;48.222;16.342;2022-10-16T01:04:12;15.20;99.90
17170;DHT22;8700;48.222;16.342;2022-10-16T01:07:41;15.00;99.90
17170;DHT22;8700;48.222;16.342;2022-10-16T01:11:13;15.10;99.90
17170;DHT22;8700;48.222;16.342;2022-10-16T01:14:43;15.10;99.90
17170;DHT22;8700;48.222;16.342;2022-10-16T01:18:10;15.00;99.90
17170;DHT22;8700;48.222;16.342;2022-10-16T01:21:38;14.90;99.90
17170;DHT22;8700;48.222;16.342;2022-10-16T01:25:07;14.80;99.90
17170;DHT22;8700;48.222;16.342;2022-10-16T01:28:36;14.80;99.90
17170;DHT22;8700;48.222;16.342;2022-10-16T01:32:04;14.80;99.90
17170;DHT22;8700;48.222;16.342;2022-10-16T01:35:28;14.80;99.90
17170;DHT22;8700;48.222;16.342;2022-10-16T01:38:53;14.70;99.90
17170;DHT22;8700;48.222;16.342;2022-10-16T01:42:18;14.70;99.90
17170;DHT22;8700;48.222;16.342;2022-10-16T01:45:45;14.70;99.90
17170;DHT22;8700;48.222;16.342;2022-10-16T01:49:08;14.80;99.90
17170;DHT22;8700;48.222;16.342;2022-10-16T01:52:32;14.90;99.90
17170;DHT22;8700;48.222;16.342;2022-10-16T01:55:58;15.10;99.90
17170;DHT22;8700;48.222;16.342;2022-10-16T01:59:21;15.20;99.90
17170;DHT22;8700;48.222;16.342;2022-10-16T02:02:47;15.30;99.90
17170;DHT22;8700;48.222;16.342;2022-10-16T02:06:10;15.20;99.90
17170;DHT22;8700;48.222;16.342;2022-10-16T02:09:33;15.20;99.90
17170;DHT22;8700;48.222;16.342;2022-10-16T02:12:59;15.00;99.90
17170;DHT22;8700;48.222;16.342;2022-10-16T02:16:23;14.80;99.90
17170;DHT22;8700;48.222;16.342;2022-10-16T02:19:56;14.80;99.90
17170;DHT22;8700;48.222;16.342;2022-10-16T02:23:22;14.70;99.90
17170;DHT22;8700;48.222;16.342;2022-10-16T02:26:50;14.70;99.90
17170;DHT22;8700;48.222;16.342;2022-10-16T02:30:15;14.80;99.90
17170;DHT22;8700;48.222;16.342;2022-10-16T02:33:39;14.90;99.90
17170;DHT22;8700;48.222;16.342;2022-10-16T02:37:03;14.70;99.90
17170;DHT22;8700;48.222;16.342;2022-10-16T02:40:27;14.70;99.90
17170;DHT22;8700;48.222;16.342;2022-10-16T02:43:48;14.80;99.90
17170;DHT22;8700;48.222;16.342;2022-10-16T02:47:10;14.70;99.90
17170;DHT22;8700;48.222;16.342;2022-10-16T02:50:32;14.60;99.90
17170;DHT22;8700;48.222;16.342;2022-10-16T02:53:55;14.50;99.90
17170;DHT22;8700;48.222;16.342;2022-10-16T02:57:16;14.60;99.90
17170;DHT22;8700;48.222;16.342;2022-10-16T03:00:38;14.60;99.90
17170;DHT22;8700;48.222;16.342;2022-10-16T03:03:59;14.60;99.90
17170;DHT22;8700;48.222;16.342;2022-10-16T03:07:20;14.70;99.90
17170;DHT22;8700;48.222;16.342;2022-10-16T03:10:42;14.60;99.90
17170;DHT22;8700;48.222;16.342;2022-10-16T03:14:04;14.50;99.90
17170;DHT22;8700;48.222;16.342;2022-10-16T03:17:25;14.50;99.90
17170;DHT22;8700;48.222;16.342;2022-10-16T03:20:46;14.40;99.90
17170;DHT22;8700;48.222;16.342;2022-10-16T03:24:08;14.40;99.90
17170;DHT22;8700;48.222;16.342;2022-10-16T03:27:31;14.40;99.90
17170;DHT22;8700;48.222;16.342;2022-10-16T03:30:52;14.50;99.90
17170;DHT22;8700;48.222;16.342;2022-10-16T03:34:13;14.60;99.90
17170;DHT22;8700;48.222;16.342;2022-10-16T03:37:34;14.60;99.90
17170;DHT22;8700;48.222;16.342;2022-10-16T03:40:56;14.60;99.90
17170;DHT22;8700;48.222;16.342;2022-10-16T03:44:18;14.60;99.90
17170;DHT22;8700;48.222;16.342;2022-10-16T03:47:40;14.50;99.90
17170;DHT22;8700;48.222;16.342;2022-10-16T03:51:01;14.60;99.90
17170;DHT22;8700;48.222;16.342;2022-10-16T03:54:23;14.60;99.90
17170;DHT22;8700;48.222;16.342;2022-10-16T03:57:44;14.60;99.90
17170;DHT22;8700;48.222;16.342;2022-10-16T04:01:07;14.60;99.90
17170;DHT22;8700;48.222;16.342;2022-10-16T04:04:28;14.70;99.90
17170;DHT22;8700;48.222;16.342;2022-10-16T04:07:49;14.70;99.90
17170;DHT22;8700;48.222;16.342;2022-10-16T04:11:11;14.70;99.90
17170;DHT22;8700;48.222;16.342;2022-10-16T04:14:32;14.50;99.90
17170;DHT22;8700;48.222;16.342;2022-10-16T04:17:55;14.30;99.90
17170;DHT22;8700;48.222;16.342;2022-10-16T04:21:16;14.00;99.90
17170;DHT22;8700;48.222;16.342;2022-10-16T04:24:37;14.20;99.90
17170;DHT22;8700;48.222;16.342;2022-10-16T04:27:59;14.20;99.90
17170;DHT22;8700;48.222;16.342;2022-10-16T04:31:20;14.30;99.90
17170;DHT22;8700;48.222;16.342;2022-10-16T04:34:43;14.30;99.90
17170;DHT22;8700;48.222;16.342;2022-10-16T04:38:04;14.20;99.90
17170;DHT22;8700;48.222;16.342;2022-10-16T04:41:25;14.20;99.90
17170;DHT22;8700;48.222;16.342;2022-10-16T04:44:47;14.20;99.90
17170;DHT22;8700;48.222;16.342;2022-10-16T04:48:08;14.20;99.90
17170;DHT22;8700;48.222;16.342;2022-10-16T04:51:31;14.20;99.90
17170;DHT22;8700;48.222;16.342;2022-10-16T04:54:53;14.10;99.90
17170;DHT22;8700;48.222;16.342;2022-10-16T04:58:15;14.10;99.90
17170;DHT22;8700;48.222;16.342;2022-10-16T05:01:36;14.20;99.90
17170;DHT22;8700;48.222;16.342;2022-10-16T05:04:57;14.10;99.90
17170;DHT22;8700;48.222;16.342;2022-10-16T05:08:20;14.00;99.90
17170;DHT22;8700;48.222;16.342;2022-10-16T05:11:41;13.80;99.90
17170;DHT22;8700;48.222;16.342;2022-10-16T05:15:03;13.90;99.90
17170;DHT22;8700;48.222;16.342;2022-10-16T05:18:25;14.00;99.90
17170;DHT22;8700;48.222;16.342;2022-10-16T05:21:46;14.10;99.90
17170;DHT22;8700;48.222;16.342;2022-10-16T05:25:09;14.10;99.90
17170;DHT22;8700;48.222;16.342;2022-10-16T05:28:34;14.10;99.90
17170;DHT22;8700;48.222;16.342;2022-10-16T05:31:55;14.20;99.90
17170;DHT22;8700;48.222;16.342;2022-10-16T05:35:18;14.00;99.90
17170;DHT22;8700;48.222;16.342;2022-10-16T05:38:39;14.00;99.90
17170;DHT22;8700;48.222;16.342;2022-10-16T05:42:02;13.90;99.90
17170;DHT22;8700;48.222;16.342;2022-10-16T05:45:28;13.80;99.90
17170;DHT22;8700;48.222;16.342;2022-10-16T05:48:52;13.80;99.90
17170;DHT22;8700;48.222;16.342;2022-10-16T05:52:14;13.80;99.90
17170;DHT22;8700;48.222;16.342;2022-10-16T05:55:35;13.70;99.90
17170;DHT22;8700;48.222;16.342;2022-10-16T05:58:58;13.70;99.90
17170;DHT22;8700;48.222;16.342;2022-10-16T06:02:19;13.60;99.90
17170;DHT22;8700;48.222;16.342;2022-10-16T06:05:40;13.70;99.90
17170;DHT22;8700;48.222;16.342;2022-10-16T06:09:03;13.90;99.90
17170;DHT22;8700;48.222;16.342;2022-10-16T06:12:24;13.90;99.90
17170;DHT22;8700;48.222;16.342;2022-10-16T06:15:46;13.90;99.90
17170;DHT22;8700;48.222;16.342;2022-10-16T06:19:08;14.00;99.90
17170;DHT22;8700;48.222;16.342;2022-10-16T06:22:29;14.10;99.90
17170;DHT22;8700;48.222;16.342;2022-10-16T06:25:50;14.10;99.90
17170;DHT22;8700;48.222;16.342;2022-10-16T06:29:12;14.30;99.90
17170;DHT22;8700;48.222;16.342;2022-10-16T06:32:34;14.40;99.90
17170;DHT22;8700;48.222;16.342;2022-10-16T06:36:00;14.40;99.90
17170;DHT22;8700;48.222;16.342;2022-10-16T06:39:22;14.50;99.90
17170;DHT22;8700;48.222;16.342;2022-10-16T06:42:43;14.40;99.90
17170;DHT22;8700;48.222;16.342;2022-10-16T06:46:07;14.40;99.90
17170;DHT22;8700;48.222;16.342;2022-10-16T06:49:29;14.40;99.90
17170;DHT22;8700;48.222;16.342;2022-10-16T06:52:51;14.40;99.90
17170;DHT22;8700;48.222;16.342;2022-10-16T06:56:14;14.40;99.90
17170;DHT22;8700;48.222;16.342;2022-10-16T06:59:35;14.40;99.90
17170;DHT22;8700;48.222;16.342;2022-10-16T07:02:57;14.50;99.90
17170;DHT22;8700;48.222;16.342;2022-10-16T07:06:21;14.60;99.90
17170;DHT22;8700;48.222;16.342;2022-10-16T07:09:43;14.70;99.90
17170;DHT22;8700;48.222;16.342;2022-10-16T07:13:05;14.60;99.90
17170;DHT22;8700;48.222;16.342;2022-10-16T07:16:28;14.50;99.90
17170;DHT22;8700;48.222;16.342;2022-10-16T07:19:50;14.60;99.90
17170;DHT22;8700;48.222;16.342;2022-10-16T07:23:14;14.40;99.90
17170;DHT22;8700;48.222;16.342;2022-10-16T07:26:36;14.20;99.90
17170;DHT22;8700;48.222;16.342;2022-10-16T07:29:58;14.30;99.90
17170;DHT22;8700;48.222;16.342;2022-10-16T07:33:20;14.30;99.90
17170;DHT22;8700;48.222;16.342;2022-10-16T07:36:44;14.40;99.90
17170;DHT22;8700;48.222;16.342;2022-10-16T07:40:10;14.50;99.90
17170;DHT22;8700;48.222;16.342;2022-10-16T07:43:33;14.30;99.90
17170;DHT22;8700;48.222;16.342;2022-10-16T07:46:55;14.10;99.90
17170;DHT22;8700;48.222;16.342;2022-10-16T07:50:16;14.10;99.90
17170;DHT22;8700;48.222;16.342;2022-10-16T07:53:37;14.20;99.90
17170;DHT22;8700;48.222;16.342;2022-10-16T07:57:00;14.20;99.90
17170;DHT22;8700;48.222;16.342;2022-10-16T08:00:22;14.30;99.90
17170;DHT22;8700;48.222;16.342;2022-10-16T08:03:43;14.30;99.90
17170;DHT22;8700;48.222;16.342;2022-10-16T08:07:07;14.60;99.90
17170;DHT22;8700;48.222;16.342;2022-10-16T08:10:29;14.70;99.90
17170;DHT22;8700;48.222;16.342;2022-10-16T08:13:53;14.50;99.90
17170;DHT22;8700;48.222;16.342;2022-10-16T08:17:14;14.60;99.90
17170;DHT22;8700;48.222;16.342;2022-10-16T08:20:36;14.70;99.90
17170;DHT22;8700;48.222;16.342;2022-10-16T08:23:57;14.80;99.90
17170;DHT22;8700;48.222;16.342;2022-10-16T08:27:20;15.00;99.90
17170;DHT22;8700;48.222;16.342;2022-10-16T08:30:42;15.20;99.90
17170;DHT22;8700;48.222;16.342;2022-10-16T08:34:04;15.20;99.90
17170;DHT22;8700;48.222;16.342;2022-10-16T08:37:29;15.10;99.90
17170;DHT22;8700;48.222;16.342;2022-10-16T08:40:51;15.20;99.90
17170;DHT22;8700;48.222;16.342;2022-10-16T08:44:36;15.30;99.90
17170;DHT22;8700;48.222;16.342;2022-10-16T08:48:09;15.70;99.90
17170;DHT22;8700;48.222;16.342;2022-10-16T08:51:36;15.70;99.90
17170;DHT22;8700;48.222;16.342;2022-10-16T08:54:58;15.60;99.90
17170;DHT22;8700;48.222;16.342;2022-10-16T08:58:25;15.40;99.90
17170;DHT22;8700;48.222;16.342;2022-10-16T09:01:50;15.50;99.90
17170;DHT22;8700;48.222;16.342;2022-10-16T09:05:41;15.80;99.90
17170;DHT22;8700;48.222;16.342;2022-10-16T09:09:20;15.90;99.90
17170;DHT22;8700;48.222;16.342;2022-10-16T09:12:51;16.30;99.90
17170;DHT22;8700;48.222;16.342;2022-10-16T09:16:19;15.90;99.90
17170;DHT22;8700;48.222;16.342;2022-10-16T09:19:46;15.90;99.90
17170;DHT22;8700;48.222;16.342;2022-10-16T09:23:18;15.80;99.90
17170;DHT22;8700;48.222;16.342;2022-10-16T09:26:40;16.00;99.90
17170;DHT22;8700;48.222;16.342;2022-10-16T09:30:06;16.10;99.90
17170;DHT22;8700;48.222;16.342;2022-10-16T09:33:36;16.40;99.90
17170;DHT22;8700;48.222;16.342;2022-10-16T09:37:03;16.60;99.90
17170;DHT22;8700;48.222;16.342;2022-10-16T09:40:29;16.60;99.90
17170;DHT22;8700;48.222;16.342;2022-10-16T09:43:54;16.60;99.90
17170;DHT22;8700;48.222;16.342;2022-10-16T09:47:19;16.50;99.90
17170;DHT22;8700;48.222;16.342;2022-10-16T09:50:41;16.30;99.90
17170;DHT22;8700;48.222;16.342;2022-10-16T09:54:13;16.60;99.90
17170;DHT22;8700;48.222;16.342;2022-10-16T09:57:36;17.10;99.90
17170;DHT22;8700;48.222;16.342;2022-10-16T10:00:57;17.30;99.90
17170;DHT22;8700;48.222;16.342;2022-10-16T10:04:21;17.00;99.90
17170;DHT22;8700;48.222;16.342;2022-10-16T10:07:44;16.80;99.90
17170;DHT22;8700;48.222;16.342;2022-10-16T10:11:06;16.60;99.90
17170;DHT22;8700;48.222;16.342;2022-10-16T10:14:31;16.90;99.90
17170;DHT22;8700;48.222;16.342;2022-10-16T10:17:57;17.40;99.90
17170;DHT22;8700;48.222;16.342;2022-10-16T10:21:18;17.50;99.90
17170;DHT22;8700;48.222;16.342;2022-10-16T10:24:40;17.60;99.90
17170;DHT22;8700;48.222;16.342;2022-10-16T10:32:01;17.20;99.90
17170;DHT22;8700;48.222;16.342;2022-10-16T10:35:31;17.80;99.90
17170;DHT22;8700;48.222;16.342;2022-10-16T10:38:59;17.60;99.90
17170;DHT22;8700;48.222;16.342;2022-10-16T10:42:25;18.10;99.90
17170;DHT22;8700;48.222;16.342;2022-10-16T10:45:52;17.90;99.90
17170;DHT22;8700;48.222;16.342;2022-10-16T10:49:28;17.80;99.90
17170;DHT22;8700;48.222;16.342;2022-10-16T10:52:58;17.60;99.90
17170;DHT22;8700;48.222;16.342;2022-10-16T10:56:34;17.40;99.90
17170;DHT22;8700;48.222;16.342;2022-10-16T11:00:19;17.60;99.90
17170;DHT22;8700;48.222;16.342;2022-10-16T11:04:03;18.00;99.90
17170;DHT22;8700;48.222;16.342;2022-10-16T11:07:33;17.90;99.90
17170;DHT22;8700;48.222;16.342;2022-10-16T11:10:59;17.40;99.90
17170;DHT22;8700;48.222;16.342;2022-10-16T11:14:28;18.20;99.90
17170;DHT22;8700;48.222;16.342;2022-10-16T11:17:53;19.20;99.90
17170;DHT22;8700;48.222;16.342;2022-10-16T11:21:19;20.40;99.90
17170;DHT22;8700;48.222;16.342;2022-10-16T11:24:46;20.70;99.90
17170;DHT22;8700;48.222;16.342;2022-10-16T11:28:11;21.40;99.90
17170;DHT22;8700;48.222;16.342;2022-10-16T11:31:37;21.20;99.90
17170;DHT22;8700;48.222;16.342;2022-10-16T11:35:05;21.50;99.90
17170;DHT22;8700;48.222;16.342;2022-10-16T11:38:32;21.80;99.90
17170;DHT22;8700;48.222;16.342;2022-10-16T11:42:02;22.30;99.90
17170;DHT22;8700;48.222;16.342;2022-10-16T11:45:28;22.50;99.90
17170;DHT22;8700;48.222;16.342;2022-10-16T11:48:57;23.10;99.90
17170;DHT22;8700;48.222;16.342;2022-10-16T11:52:25;23.00;99.90
17170;DHT22;8700;48.222;16.342;2022-10-16T11:55:50;22.60;99.90
17170;DHT22;8700;48.222;16.342;2022-10-16T11:59:20;22.40;99.90
17170;DHT22;8700;48.222;16.342;2022-10-16T12:02:53;21.60;99.90
17170;DHT22;8700;48.222;16.342;2022-10-16T12:06:27;21.60;99.90
17170;DHT22;8700;48.222;16.342;2022-10-16T12:09:51;20.80;99.90
17170;DHT22;8700;48.222;16.342;2022-10-16T12:13:30;20.70;99.90
17170;DHT22;8700;48.222;16.342;2022-10-16T12:16:56;20.60;99.90
17170;DHT22;8700;48.222;16.342;2022-10-16T12:20:27;20.30;99.90
17170;DHT22;8700;48.222;16.342;2022-10-16T12:23:53;20.60;99.90
17170;DHT22;8700;48.222;16.342;2022-10-16T12:27:24;20.60;99.90
17170;DHT22;8700;48.222;16.342;2022-10-16T12:30:53;20.60;99.90
17170;DHT22;8700;48.222;16.342;2022-10-16T12:34:22;20.30;99.90
17170;DHT22;8700;48.222;16.342;2022-10-16T12:37:45;20.00;99.90
17170;DHT22;8700;48.222;16.342;2022-10-16T12:41:08;20.10;99.90
17170;DHT22;8700;48.222;16.342;2022-10-16T12:44:35;20.40;99.90
17170;DHT22;8700;48.222;16.342;2022-10-16T12:47:57;20.80;99.90
17170;DHT22;8700;48.222;16.342;2022-10-16T12:51:25;20.60;99.90
17170;DHT22;8700;48.222;16.342;2022-10-16T12:54:57;20.40;99.90
17170;DHT22;8700;48.222;16.342;2022-10-16T12:58:37;20.60;99.90
17170;DHT22;8700;48.222;16.342;2022-10-16T13:02:24;21.40;99.90
17170;DHT22;8700;48.222;16.342;2022-10-16T13:06:06;20.80;99.90
17170;DHT22;8700;48.222;16.342;2022-10-16T13:09:39;21.10;99.90
17170;DHT22;8700;48.222;16.342;2022-10-16T13:13:19;21.20;99.90
17170;DHT22;8700;48.222;16.342;2022-10-16T13:16:51;21.50;99.90
17170;DHT22;8700;48.222;16.342;2022-10-16T13:20:22;21.10;99.90
17170;DHT22;8700;48.222;16.342;2022-10-16T13:23:50;21.10;99.90
17170;DHT22;8700;48.222;16.342;2022-10-16T13:27:23;21.30;99.90
17170;DHT22;8700;48.222;16.342;2022-10-16T13:30:52;21.70;99.90
17170;DHT22;8700;48.222;16.342;2022-10-16T13:34:17;21.80;99.90
17170;DHT22;8700;48.222;16.342;2022-10-16T13:37:39;22.00;99.90
17170;DHT22;8700;48.222;16.342;2022-10-16T13:41:02;22.20;99.90
17170;DHT22;8700;48.222;16.342;2022-10-16T13:44:24;22.20;99.90
17170;DHT22;8700;48.222;16.342;2022-10-16T13:47:46;22.00;99.90
17170;DHT22;8700;48.222;16.342;2022-10-16T13:51:13;21.90;99.90
17170;DHT22;8700;48.222;16.342;2022-10-16T13:54:35;22.10;99.90
17170;DHT22;8700;48.222;16.342;2022-10-16T13:58:05;22.30;99.90
17170;DHT22;8700;48.222;16.342;2022-10-16T14:01:29;22.00;99.90
17170;DHT22;8700;48.222;16.342;2022-10-16T14:04:51;22.20;99.90
17170;DHT22;8700;48.222;16.342;2022-10-16T14:08:14;22.50;99.90
17170;DHT22;8700;48.222;16.342;2022-10-16T14:11:41;22.50;99.90
17170;DHT22;8700;48.222;16.342;2022-10-16T14:15:15;22.30;99.90
17170;DHT22;8700;48.222;16.342;2022-10-16T14:18:39;21.80;99.90
17170;DHT22;8700;48.222;16.342;2022-10-16T14:22:02;21.80;99.90
17170;DHT22;8700;48.222;16.342;2022-10-16T14:25:25;21.70;99.90
17170;DHT22;8700;48.222;16.342;2022-10-16T14:28:48;21.70;99.90
17170;DHT22;8700;48.222;16.342;2022-10-16T14:32:23;21.90;99.90
17170;DHT22;8700;48.222;16.342;2022-10-16T14:35:46;22.00;99.90
17170;DHT22;8700;48.222;16.342;2022-10-16T14:39:21;21.80;99.90
17170;DHT22;8700;48.222;16.342;2022-10-16T14:42:43;21.60;99.90
17170;DHT22;8700;48.222;16.342;2022-10-16T14:46:11;21.60;99.90
17170;DHT22;8700;48.222;16.342;2022-10-16T14:49:33;21.70;99.90
17170;DHT22;8700;48.222;16.342;2022-10-16T14:52:56;21.70;99.90
17170;DHT22;8700;48.222;16.342;2022-10-16T14:56:19;21.60;99.90
17170;DHT22;8700;48.222;16.342;2022-10-16T14:59:42;21.60;99.90
17170;DHT22;8700;48.222;16.342;2022-10-16T15:03:04;21.50;99.90
17170;DHT22;8700;48.222;16.342;2022-10-16T15:06:25;21.60;99.90
17170;DHT22;8700;48.222;16.342;2022-10-16T15:09:48;21.60;99.90
17170;DHT22;8700;48.222;16.342;2022-10-16T15:13:12;21.60;99.90
17170;DHT22;8700;48.222;16.342;2022-10-16T15:16:34;21.50;99.90
17170;DHT22;8700;48.222;16.342;2022-10-16T15:19:55;21.30;99.90
17170;DHT22;8700;48.222;16.342;2022-10-16T15:23:21;21.30;99.90
17170;DHT22;8700;48.222;16.342;2022-10-16T15:26:43;21.20;99.90
17170;DHT22;8700;48.222;16.342;2022-10-16T15:30:06;21.20;99.90
17170;DHT22;8700;48.222;16.342;2022-10-16T15:33:28;21.10;99.90
17170;DHT22;8700;48.222;16.342;2022-10-16T15:36:52;21.30;99.90
17170;DHT22;8700;48.222;16.342;2022-10-16T15:40:15;21.20;99.90
17170;DHT22;8700;48.222;16.342;2022-10-16T15:43:38;21.20;99.90
17170;DHT22;8700;48.222;16.342;2022-10-16T15:47:00;21.20;99.90
17170;DHT22;8700;48.222;16.342;2022-10-16T15:50:21;21.20;99.90
17170;DHT22;8700;48.222;16.342;2022-10-16T15:53:43;21.20;99.90
17170;DHT22;8700;48.222;16.342;2022-10-16T15:57:06;21.20;99.90
17170;DHT22;8700;48.222;16.342;2022-10-16T16:00:28;21.20;99.90
17170;DHT22;8700;48.222;16.342;2022-10-16T16:03:52;21.10;99.90
17170;DHT22;8700;48.222;16.342;2022-10-16T16:07:14;21.00;99.90
17170;DHT22;8700;48.222;16.342;2022-10-16T16:10:35;20.90;99.90
17170;DHT22;8700;48.222;16.342;2022-10-16T16:13:56;20.90;99.90
17170;DHT22;8700;48.222;16.342;2022-10-16T16:17:19;20.90;99.90
17170;DHT22;8700;48.222;16.342;2022-10-16T16:20:40;20.90;99.90
17170;DHT22;8700;48.222;16.342;2022-10-16T16:24:02;20.80;99.90
17170;DHT22;8700;48.222;16.342;2022-10-16T16:27:27;20.90;99.90
17170;DHT22;8700;48.222;16.342;2022-10-16T16:30:51;20.80;99.90
17170;DHT22;8700;48.222;16.342;2022-10-16T16:34:13;20.80;99.90
17170;DHT22;8700;48.222;16.342;2022-10-16T16:37:35;20.70;99.90
17170;DHT22;8700;48.222;16.342;2022-10-16T16:40:56;20.70;99.90
17170;DHT22;8700;48.222;16.342;2022-10-16T16:44:18;20.60;99.90
17170;DHT22;8700;48.222;16.342;2022-10-16T16:47:39;20.60;99.90
17170;DHT22;8700;48.222;16.342;2022-10-16T16:51:04;20.50;99.90
17170;DHT22;8700;48.222;16.342;2022-10-16T16:54:26;20.50;99.90
17170;DHT22;8700;48.222;16.342;2022-10-16T16:57:48;20.40;99.90
17170;DHT22;8700;48.222;16.342;2022-10-16T17:01:09;20.40;99.90
17170;DHT22;8700;48.222;16.342;2022-10-16T17:04:31;20.30;99.90
17170;DHT22;8700;48.222;16.342;2022-10-16T17:07:53;20.30;99.90
17170;DHT22;8700;48.222;16.342;2022-10-16T17:11:17;20.30;99.90
17170;DHT22;8700;48.222;16.342;2022-10-16T17:14:39;20.30;99.90
17170;DHT22;8700;48.222;16.342;2022-10-16T17:18:00;20.20;99.90
17170;DHT22;8700;48.222;16.342;2022-10-16T17:21:22;20.00;99.90
17170;DHT22;8700;48.222;16.342;2022-10-16T17:24:47;20.00;99.90
17170;DHT22;8700;48.222;16.342;2022-10-16T17:28:10;20.00;99.90
17170;DHT22;8700;48.222;16.342;2022-10-16T17:31:34;19.90;99.90
17170;DHT22;8700;48.222;16.342;2022-10-16T17:34:55;19.90;99.90
17170;DHT22;8700;48.222;16.342;2022-10-16T17:38:17;19.70;99.90
17170;DHT22;8700;48.222;16.342;2022-10-16T17:41:39;19.70;99.90
17170;DHT22;8700;48.222;16.342;2022-10-16T17:45:01;19.70;99.90
17170;DHT22;8700;48.222;16.342;2022-10-16T17:48:22;19.60;99.90
17170;DHT22;8700;48.222;16.342;2022-10-16T17:51:44;19.60;99.90
17170;DHT22;8700;48.222;16.342;2022-10-16T17:55:06;19.50;99.90
17170;DHT22;8700;48.222;16.342;2022-10-16T17:58:29;19.50;99.90
17170;DHT22;8700;48.222;16.342;2022-10-16T18:01:51;19.50;99.90
17170;DHT22;8700;48.222;16.342;2022-10-16T18:05:12;19.40;99.90
17170;DHT22;8700;48.222;16.342;2022-10-16T18:08:33;19.30;99.90
17170;DHT22;8700;48.222;16.342;2022-10-16T18:11:55;19.30;99.90
17170;DHT22;8700;48.222;16.342;2022-10-16T18:15:20;19.20;99.90
17170;DHT22;8700;48.222;16.342;2022-10-16T18:18:43;19.10;99.90
17170;DHT22;8700;48.222;16.342;2022-10-16T18:22:04;19.00;99.90
17170;DHT22;8700;48.222;16.342;2022-10-16T18:25:26;18.90;99.90
17170;DHT22;8700;48.222;16.342;2022-10-16T18:28:47;18.80;99.90
17170;DHT22;8700;48.222;16.342;2022-10-16T18:32:11;18.80;99.90
17170;DHT22;8700;48.222;16.342;2022-10-16T18:35:34;18.70;99.90
17170;DHT22;8700;48.222;16.342;2022-10-16T18:38:56;18.60;99.90
17170;DHT22;8700;48.222;16.342;2022-10-16T18:42:18;18.60;99.90
17170;DHT22;8700;48.222;16.342;2022-10-16T18:45:39;18.60;99.90
17170;DHT22;8700;48.222;16.342;2022-10-16T18:49:03;18.60;99.90
17170;DHT22;8700;48.222;16.342;2022-10-16T18:52:24;18.50;99.90
17170;DHT22;8700;48.222;16.342;2022-10-16T18:55:50;18.50;99.90
17170;DHT22;8700;48.222;16.342;2022-10-16T18:59:13;18.60;99.90
17170;DHT22;8700;48.222;16.342;2022-10-16T19:02:34;18.60;99.90
17170;DHT22;8700;48.222;16.342;2022-10-16T19:06:00;18.60;99.90
17170;DHT22;8700;48.222;16.342;2022-10-16T19:09:22;18.50;99.90
17170;DHT22;8700;48.222;16.342;2022-10-16T19:12:44;18.50;99.90
17170;DHT22;8700;48.222;16.342;2022-10-16T19:16:10;18.50;99.90
17170;DHT22;8700;48.222;16.342;2022-10-16T19:19:31;18.50;99.90
17170;DHT22;8700;48.222;16.342;2022-10-16T19:22:54;18.40;99.90
17170;DHT22;8700;48.222;16.342;2022-10-16T19:26:18;18.40;99.90
17170;DHT22;8700;48.222;16.342;2022-10-16T19:29:40;18.40;99.90
17170;DHT22;8700;48.222;16.342;2022-10-16T19:33:01;18.40;99.90
17170;DHT22;8700;48.222;16.342;2022-10-16T19:36:25;18.40;99.90
17170;DHT22;8700;48.222;16.342;2022-10-16T19:39:49;18.30;99.90
17170;DHT22;8700;48.222;16.342;2022-10-16T19:43:10;18.30;99.90
17170;DHT22;8700;48.222;16.342;2022-10-16T19:46:33;18.30;99.90
17170;DHT22;8700;48.222;16.342;2022-10-16T19:49:54;18.30;99.90
17170;DHT22;8700;48.222;16.342;2022-10-16T19:53:15;18.30;99.90
17170;DHT22;8700;48.222;16.342;2022-10-16T19:56:38;18.40;99.90
17170;DHT22;8700;48.222;16.342;2022-10-16T20:00:00;18.40;99.90
17170;DHT22;8700;48.222;16.342;2022-10-16T20:03:21;18.30;99.90
17170;DHT22;8700;48.222;16.342;2022-10-16T20:06:43;18.30;99.90
17170;DHT22;8700;48.222;16.342;2022-10-16T20:10:05;18.30;99.90
17170;DHT22;8700;48.222;16.342;2022-10-16T20:13:29;18.30;99.90
17170;DHT22;8700;48.222;16.342;2022-10-16T20:16:50;18.30;99.90
17170;DHT22;8700;48.222;16.342;2022-10-16T20:20:12;18.30;99.90
17170;DHT22;8700;48.222;16.342;2022-10-16T20:23:33;18.30;99.90
17170;DHT22;8700;48.222;16.342;2022-10-16T20:26:54;18.10;99.90
17170;DHT22;8700;48.222;16.342;2022-10-16T20:30:18;18.10;99.90
17170;DHT22;8700;48.222;16.342;2022-10-16T20:33:39;18.10;99.90
17170;DHT22;8700;48.222;16.342;2022-10-16T20:37:00;18.20;99.90
17170;DHT22;8700;48.222;16.342;2022-10-16T20:40:22;18.20;99.90
17170;DHT22;8700;48.222;16.342;2022-10-16T20:43:44;18.20;99.90
17170;DHT22;8700;48.222;16.342;2022-10-16T20:47:08;18.10;99.90
17170;DHT22;8700;48.222;16.342;2022-10-16T20:50:29;17.90;99.90
17170;DHT22;8700;48.222;16.342;2022-10-16T20:53:54;17.80;99.90
17170;DHT22;8700;48.222;16.342;2022-10-16T20:57:15;17.60;99.90
17170;DHT22;8700;48.222;16.342;2022-10-16T21:00:37;17.40;99.90
17170;DHT22;8700;48.222;16.342;2022-10-16T21:04:02;17.30;99.90
17170;DHT22;8700;48.222;16.342;2022-10-16T21:07:23;17.10;99.90
17170;DHT22;8700;48.222;16.342;2022-10-16T21:10:46;17.10;99.90
17170;DHT22;8700;48.222;16.342;2022-10-16T21:14:08;17.10;99.90
17170;DHT22;8700;48.222;16.342;2022-10-16T21:17:30;16.90;99.90
17170;DHT22;8700;48.222;16.342;2022-10-16T21:20:53;16.90;99.90
17170;DHT22;8700;48.222;16.342;2022-10-16T21:24:14;16.80;99.90
17170;DHT22;8700;48.222;16.342;2022-10-16T21:27:37;16.80;99.90
17170;DHT22;8700;48.222;16.342;2022-10-16T21:30:58;16.70;99.90